Archival Weather

Granbury Rgnl

Granbury, Texas (KGDJ)

Report from: Monday, January 29, 2024 8:15 PM UTC
Current time: Tuesday, June 18, 2024 12:52 PM UTC

Current weather – Weather history – Daily summaries
Weather forecast

Temperature21.6°C (70.9°F)
Dew point2.6°C (36.7°F)
Winds 10 kts (5.1 m/s, 11.5 mph) West-Northwest (290°)
Visibility10 mi. (16.1 km)
Clouds Sky clear
Altimeter30.23 in.Hg (1024 mB)
Relative humidity29 %
Density altitude532 ft. (162 m)
Remarks Fully automated report
Automated weather observing station with precipitation discriminator
Flight conditions Visual Meteorological Conditions
Raw dataKGDJ 292015Z AUTO 29010KT 10SM CLR 22/03 A3023 RMK AO2 T02160026
An error has occurred. This application may no longer respond until reloaded. Reload 🗙